createdAt,value
2019-01-20T00:00:54.058Z,63.69
2019-01-20T00:02:00.413Z,64.06
2019-01-20T00:03:06.242Z,64.22
2019-01-20T00:04:12.095Z,63.88
2019-01-20T00:05:17.278Z,63.70
2019-01-20T00:06:22.670Z,63.96
2019-01-20T00:07:28.659Z,63.75
2019-01-20T00:08:33.958Z,63.52
2019-01-20T00:09:38.988Z,63.96
2019-01-20T00:10:43.936Z,63.86
2019-01-20T00:11:49.066Z,63.45
2019-01-20T00:12:54.495Z,63.75
2019-01-20T00:14:00.516Z,63.87
2019-01-20T00:15:06.490Z,63.75
2019-01-20T00:16:13.147Z,63.31
2019-01-20T00:17:18.868Z,63.50
2019-01-20T00:18:23.758Z,63.63
2019-01-20T00:19:29.145Z,63.46
2019-01-20T00:20:34.332Z,63.39
2019-01-20T00:21:39.783Z,63.48
2019-01-20T00:22:45.246Z,63.48
2019-01-20T00:23:51.758Z,63.17
2019-01-20T00:24:57.118Z,63.19
2019-01-20T00:26:02.522Z,63.38
2019-01-20T00:27:07.520Z,62.99
2019-01-20T00:28:12.601Z,63.08
2019-01-20T00:29:18.521Z,63.12
2019-01-20T00:30:23.533Z,63.05
2019-01-20T00:31:28.513Z,62.61
2019-01-20T00:32:34.064Z,62.27
2019-01-20T00:33:39.804Z,62.47
2019-01-20T00:34:47.167Z,62.56
2019-01-20T00:35:52.569Z,62.99
2019-01-20T00:36:57.523Z,63.05
2019-01-20T00:38:02.597Z,62.55
2019-01-20T00:39:09.987Z,62.77
2019-01-20T00:40:15.975Z,62.70
2019-01-20T00:41:24.267Z,62.50
2019-01-20T00:42:28.832Z,62.65
2019-01-20T00:43:34.493Z,62.43
2019-01-20T00:44:39.537Z,61.70
2019-01-20T00:45:45.106Z,61.76
2019-01-20T00:46:50.703Z,61.78
2019-01-20T00:47:56.405Z,61.85
2019-01-20T00:49:01.853Z,61.84
2019-01-20T00:50:07.216Z,62.04
2019-01-20T00:51:11.975Z,62.08
2019-01-20T00:52:17.516Z,61.65
2019-01-20T00:53:22.951Z,62.15
2019-01-20T00:54:28.619Z,62.24
2019-01-20T00:55:33.991Z,61.95
2019-01-20T00:56:38.811Z,61.63
2019-01-20T00:57:44.724Z,61.79
2019-01-20T00:58:49.893Z,62.04
2019-01-20T00:59:55.246Z,62.82
2019-01-20T01:00:59.981Z,62.71
2019-01-20T01:02:05.435Z,62.06
2019-01-20T01:03:11.227Z,62.29
2019-01-20T01:04:16.202Z,62.41
2019-01-20T01:05:21.149Z,62.67
2019-01-20T01:06:26.170Z,62.35
2019-01-20T01:07:31.941Z,62.53
2019-01-20T01:08:36.587Z,62.15
2019-01-20T01:09:41.690Z,62.43
2019-01-20T01:10:47.095Z,62.76
2019-01-20T01:11:52.272Z,62.74
2019-01-20T01:12:58.092Z,62.56
2019-01-20T01:14:03.991Z,62.84
2019-01-20T01:15:09.823Z,62.85
2019-01-20T01:16:15.069Z,62.56
2019-01-20T01:17:20.372Z,62.22
2019-01-20T01:18:26.222Z,62.60
2019-01-20T01:19:32.299Z,62.99
2019-01-20T01:20:37.533Z,63.14
2019-01-20T01:21:42.973Z,63.21
2019-01-20T01:22:48.583Z,63.25
2019-01-20T01:23:53.923Z,62.87
2019-01-20T01:24:59.330Z,62.70
2019-01-20T01:26:04.717Z,62.61
2019-01-20T01:27:10.438Z,62.38
2019-01-20T01:28:15.379Z,62.10
2019-01-20T01:29:20.697Z,62.79
2019-01-20T01:30:26.427Z,62.57
2019-01-20T01:31:31.788Z,62.43
2019-01-20T01:32:36.539Z,62.53
2019-01-20T01:33:41.137Z,62.54
2019-01-20T01:34:46.503Z,62.74
2019-01-20T01:35:51.505Z,63.17
2019-01-20T01:36:56.732Z,62.68
2019-01-20T01:38:01.753Z,63.02
2019-01-20T01:39:09.340Z,63.68
2019-01-20T01:40:14.783Z,63.21
2019-01-20T01:41:19.386Z,62.38
2019-01-20T01:42:24.673Z,62.67
2019-01-20T01:43:32.202Z,63.29
2019-01-20T01:44:37.563Z,63.15
2019-01-20T01:45:43.087Z,63.06
2019-01-20T01:46:48.482Z,63.50
2019-01-20T01:47:53.766Z,63.35
2019-01-20T01:48:58.367Z,63.16
2019-01-20T01:50:03.641Z,62.58
2019-01-20T01:51:08.643Z,63.12
2019-01-20T01:52:13.698Z,63.30
2019-01-20T01:53:18.682Z,63.45
2019-01-20T01:54:23.736Z,63.35
2019-01-20T01:55:31.809Z,63.41
2019-01-20T01:56:36.860Z,63.43
2019-01-20T01:57:42.282Z,63.66
2019-01-20T01:58:47.889Z,62.96
2019-01-20T01:59:54.341Z,63.16
2019-01-20T02:01:01.803Z,62.83
2019-01-20T02:02:07.068Z,62.61
2019-01-20T02:03:12.153Z,63.30
2019-01-20T02:04:17.499Z,63.65
2019-01-20T02:05:23.686Z,63.36
2019-01-20T02:06:29.505Z,63.66
2019-01-20T02:07:34.151Z,63.50
2019-01-20T02:08:39.634Z,62.96
2019-01-20T02:09:44.725Z,62.71
2019-01-20T02:10:50.473Z,63.60
2019-01-20T02:11:57.622Z,63.34
2019-01-20T02:13:02.623Z,63.17
2019-01-20T02:14:07.793Z,63.72
2019-01-20T02:15:15.830Z,63.95
2019-01-20T02:16:21.164Z,64.00
2019-01-20T02:17:26.087Z,63.58
2019-01-20T02:18:30.974Z,63.94
2019-01-20T02:19:35.887Z,64.11
2019-01-20T02:20:41.734Z,64.35
2019-01-20T02:21:47.526Z,64.23
2019-01-20T02:22:52.590Z,64.31
2019-01-20T02:23:57.785Z,63.97
2019-01-20T02:25:03.301Z,63.55
2019-01-20T02:26:08.314Z,63.60
2019-01-20T02:27:14.032Z,63.26
2019-01-20T02:28:20.541Z,63.12
2019-01-20T02:29:26.034Z,62.97
2019-01-20T02:30:32.209Z,63.25
2019-01-20T02:31:37.993Z,63.17
2019-01-20T02:32:43.641Z,63.43
2019-01-20T02:33:48.359Z,63.35
2019-01-20T02:34:53.745Z,63.32
2019-01-20T02:35:59.327Z,64.39
2019-01-20T02:37:04.205Z,65.68
2019-01-20T02:38:09.173Z,65.44
2019-01-20T02:39:14.514Z,65.25
2019-01-20T02:40:19.423Z,64.93
2019-01-20T02:41:24.357Z,64.97
2019-01-20T02:42:29.313Z,65.39
2019-01-20T02:43:34.338Z,65.48
2019-01-20T02:44:40.167Z,64.39
2019-01-20T02:45:44.832Z,65.70
2019-01-20T02:46:50.728Z,65.60
2019-01-20T02:47:56.447Z,65.27
2019-01-20T02:49:03.680Z,64.68
2019-01-20T02:50:10.453Z,65.34
2019-01-20T02:51:15.934Z,65.28
2019-01-20T02:52:21.452Z,65.62
2019-01-20T02:53:27.006Z,65.84
2019-01-20T02:54:32.052Z,65.49
2019-01-20T02:55:36.696Z,65.48
2019-01-20T02:56:42.511Z,65.25
2019-01-20T02:57:47.597Z,65.09
2019-01-20T02:58:52.831Z,64.35
2019-01-20T02:59:58.103Z,64.92
2019-01-20T03:01:03.150Z,64.63
2019-01-20T03:02:08.539Z,64.85
2019-01-20T03:03:13.585Z,65.06
2019-01-20T03:04:19.859Z,64.85
2019-01-20T03:05:25.481Z,64.50
2019-01-20T03:06:30.191Z,64.66
2019-01-20T03:07:38.074Z,64.58
2019-01-20T03:08:43.009Z,65.22
2019-01-20T03:09:48.472Z,65.08
2019-01-20T03:10:53.338Z,64.84
2019-01-20T03:12:03.422Z,65.07
2019-01-20T03:13:06.557Z,65.75
2019-01-20T03:14:11.913Z,65.95
2019-01-20T03:15:16.913Z,66.59
2019-01-20T03:16:22.304Z,66.48
2019-01-20T03:17:27.582Z,67.12
2019-01-20T03:18:34.515Z,66.94
2019-01-20T03:19:39.455Z,66.77
2019-01-20T03:20:45.282Z,66.65
2019-01-20T03:21:50.114Z,67.23
2019-01-20T03:22:55.639Z,67.09
2019-01-20T03:24:00.923Z,66.82
2019-01-20T03:25:06.567Z,66.76
2019-01-20T03:26:11.596Z,66.54
2019-01-20T03:27:17.045Z,66.25
2019-01-20T03:28:21.945Z,65.96
2019-01-20T03:29:27.631Z,65.68
2019-01-20T03:30:33.401Z,65.50
2019-01-20T03:31:38.249Z,65.59
2019-01-20T03:32:43.898Z,66.00
2019-01-20T03:33:48.899Z,65.91
2019-01-20T03:34:53.810Z,66.20
2019-01-20T03:35:58.975Z,66.63
2019-01-20T03:37:04.346Z,66.89
2019-01-20T03:38:09.704Z,66.59
2019-01-20T03:39:14.629Z,66.29
2019-01-20T03:40:19.619Z,66.54
2019-01-20T03:41:24.587Z,66.47
2019-01-20T03:42:29.528Z,66.33
2019-01-20T03:43:34.647Z,66.06
2019-01-20T03:44:39.720Z,66.12
2019-01-20T03:45:45.425Z,65.86
2019-01-20T03:46:50.381Z,66.13
2019-01-20T03:47:55.628Z,66.33
2019-01-20T03:49:01.098Z,66.05
2019-01-20T03:50:06.911Z,66.23
2019-01-20T03:51:12.620Z,66.46
2019-01-20T03:52:18.697Z,66.13
2019-01-20T03:53:23.618Z,66.27
2019-01-20T03:54:28.822Z,66.28
2019-01-20T03:55:33.853Z,66.65
2019-01-20T03:56:38.483Z,66.53
2019-01-20T03:57:43.842Z,66.21
2019-01-20T03:58:49.167Z,65.88
2019-01-20T03:59:53.772Z,66.01
2019-01-20T04:00:59.266Z,65.24
2019-01-20T04:02:05.582Z,65.36
2019-01-20T04:03:11.600Z,65.49
2019-01-20T04:04:16.903Z,65.63
2019-01-20T04:05:21.932Z,65.21
2019-01-20T04:06:27.684Z,64.82
2019-01-20T04:07:32.644Z,65.08
2019-01-20T04:08:37.536Z,65.67
2019-01-20T04:09:43.166Z,65.79
2019-01-20T04:10:48.725Z,65.73
2019-01-20T04:11:54.210Z,65.90
2019-01-20T04:12:59.292Z,65.31
2019-01-20T04:14:04.312Z,64.98
2019-01-20T04:15:09.463Z,65.32
2019-01-20T04:16:14.105Z,65.18
2019-01-20T04:17:19.515Z,64.98
2019-01-20T04:18:24.377Z,64.69
2019-01-20T04:19:30.076Z,64.83
2019-01-20T04:20:35.513Z,64.34
2019-01-20T04:21:41.293Z,63.88
2019-01-20T04:22:45.811Z,64.03
2019-01-20T04:23:51.161Z,64.32
2019-01-20T04:24:56.655Z,64.45
2019-01-20T04:26:02.645Z,64.98
2019-01-20T04:27:07.705Z,65.00
2019-01-20T04:28:13.410Z,64.24
2019-01-20T04:29:19.579Z,64.90
2019-01-20T04:30:24.311Z,64.61
2019-01-20T04:31:29.888Z,63.81
2019-01-20T04:32:35.579Z,64.76
2019-01-20T04:33:41.276Z,64.61
2019-01-20T04:34:46.807Z,64.43
2019-01-20T04:35:52.108Z,64.76
2019-01-20T04:36:57.633Z,64.17
2019-01-20T04:38:02.934Z,63.30
2019-01-20T04:39:08.987Z,63.72
2019-01-20T04:40:16.533Z,64.18
2019-01-20T04:41:21.892Z,63.47
2019-01-20T04:42:29.273Z,64.60
2019-01-20T04:43:33.521Z,64.25
2019-01-20T04:44:38.437Z,64.17
2019-01-20T04:45:43.871Z,65.15
2019-01-20T04:46:49.182Z,64.98
2019-01-20T04:47:54.516Z,65.15
2019-01-20T04:48:59.564Z,65.26
2019-01-20T04:50:04.667Z,64.46
2019-01-20T04:51:09.615Z,64.92
2019-01-20T04:52:14.781Z,64.41
2019-01-20T04:53:20.337Z,64.78
2019-01-20T04:54:25.805Z,64.89
2019-01-20T04:55:31.056Z,65.01
2019-01-20T04:56:35.923Z,65.37
2019-01-20T04:57:41.054Z,66.10
2019-01-20T04:58:46.862Z,66.13
2019-01-20T04:59:51.710Z,65.99
2019-01-20T05:00:57.459Z,65.92
2019-01-20T05:02:03.493Z,66.71
2019-01-20T05:03:08.934Z,66.41
2019-01-20T05:04:14.309Z,66.85
2019-01-20T05:05:19.630Z,66.65
2019-01-20T05:06:24.860Z,66.76
2019-01-20T05:07:30.682Z,66.76
2019-01-20T05:08:36.047Z,66.17
2019-01-20T05:09:41.003Z,66.25
2019-01-20T05:10:46.319Z,65.99
2019-01-20T05:11:52.594Z,66.38
2019-01-20T05:12:57.610Z,66.68
2019-01-20T05:14:05.975Z,66.44
2019-01-20T05:15:16.050Z,66.56
2019-01-20T05:16:21.468Z,66.78
2019-01-20T05:17:26.876Z,66.80
2019-01-20T05:18:32.343Z,66.90
2019-01-20T05:19:37.627Z,66.52
2019-01-20T05:20:43.347Z,66.37
2019-01-20T05:21:48.401Z,65.92
2019-01-20T05:22:53.733Z,65.80
2019-01-20T05:23:58.648Z,65.59
2019-01-20T05:25:06.549Z,65.86
2019-01-20T05:26:11.807Z,65.55
2019-01-20T05:27:16.782Z,65.50
2019-01-20T05:28:22.139Z,65.63
2019-01-20T05:29:28.034Z,65.53
2019-01-20T05:30:33.319Z,65.59
2019-01-20T05:31:38.227Z,65.64
2019-01-20T05:32:42.870Z,65.45
2019-01-20T05:33:48.512Z,65.57
2019-01-20T05:34:53.425Z,65.51
2019-01-20T05:35:58.470Z,65.35
2019-01-20T05:37:03.860Z,65.35
2019-01-20T05:38:09.673Z,64.94
2019-01-20T05:39:15.211Z,65.04
2019-01-20T05:40:20.901Z,64.93
2019-01-20T05:41:25.970Z,65.09
2019-01-20T05:42:32.187Z,65.57
2019-01-20T05:43:37.573Z,65.09
2019-01-20T05:44:42.710Z,65.13
2019-01-20T05:45:48.648Z,65.43
2019-01-20T05:46:54.635Z,65.40
2019-01-20T05:48:00.209Z,65.24
2019-01-20T05:49:05.753Z,65.27
2019-01-20T05:50:12.250Z,65.55
2019-01-20T05:51:17.495Z,65.12
2019-01-20T05:52:22.536Z,64.96
2019-01-20T05:53:27.770Z,65.42
2019-01-20T05:54:33.757Z,65.29
2019-01-20T05:55:39.102Z,65.97
2019-01-20T05:56:44.749Z,66.80
2019-01-20T05:57:49.436Z,66.52
2019-01-20T05:58:55.586Z,66.56
2019-01-20T06:00:00.950Z,66.67
2019-01-20T06:01:06.395Z,65.88
2019-01-20T06:02:11.956Z,66.57
2019-01-20T06:03:16.756Z,67.52
2019-01-20T06:04:22.607Z,67.29
2019-01-20T06:05:28.196Z,67.24
2019-01-20T06:06:33.971Z,67.34
2019-01-20T06:07:40.211Z,67.11
2019-01-20T06:08:44.832Z,67.01
2019-01-20T06:09:53.230Z,67.00
2019-01-20T06:10:58.748Z,67.15
2019-01-20T06:12:04.151Z,67.05
2019-01-20T06:13:09.389Z,67.25
2019-01-20T06:14:14.536Z,67.16
2019-01-20T06:15:20.697Z,67.10
2019-01-20T06:16:26.956Z,66.82
2019-01-20T06:17:31.830Z,66.83
2019-01-20T06:18:38.275Z,66.94
2019-01-20T06:19:43.997Z,66.80
2019-01-20T06:20:49.610Z,66.53
2019-01-20T06:21:57.861Z,66.87
2019-01-20T06:23:04.133Z,67.29
2019-01-20T06:24:09.641Z,67.05
2019-01-20T06:25:14.899Z,67.08
2019-01-20T06:26:20.700Z,67.36
2019-01-20T06:27:27.279Z,67.18
2019-01-20T06:28:32.434Z,67.30
2019-01-20T06:29:37.700Z,67.15
2019-01-20T06:30:42.715Z,66.73
2019-01-20T06:31:48.014Z,66.35
2019-01-20T06:32:52.891Z,66.51
2019-01-20T06:33:58.132Z,67.03
2019-01-20T06:35:06.938Z,67.14
2019-01-20T06:36:12.184Z,66.89
2019-01-20T06:37:17.488Z,67.37
2019-01-20T06:38:23.516Z,67.16
2019-01-20T06:39:29.651Z,67.50
2019-01-20T06:40:34.898Z,67.50
2019-01-20T06:41:40.257Z,67.32
2019-01-20T06:42:46.181Z,67.44
2019-01-20T06:43:51.657Z,68.07
2019-01-20T06:44:56.643Z,67.49
2019-01-20T06:46:02.013Z,67.52
2019-01-20T06:47:07.424Z,67.73
2019-01-20T06:48:13.401Z,67.14
2019-01-20T06:49:18.276Z,67.11
2019-01-20T06:50:23.295Z,67.43
2019-01-20T06:51:28.305Z,67.57
2019-01-20T06:52:33.535Z,67.76
2019-01-20T06:53:40.219Z,67.50
2019-01-20T06:54:45.542Z,68.13
2019-01-20T06:55:50.641Z,68.94
2019-01-20T06:56:55.968Z,68.39
2019-01-20T06:58:01.632Z,68.12
2019-01-20T06:59:07.477Z,68.00
2019-01-20T07:00:18.354Z,68.28
2019-01-20T07:01:24.008Z,68.23
2019-01-20T07:02:28.947Z,67.58
2019-01-20T07:03:34.243Z,67.69
2019-01-20T07:04:39.505Z,67.82
2019-01-20T07:05:44.138Z,67.67
2019-01-20T07:06:49.341Z,67.54
2019-01-20T07:07:54.185Z,67.30
2019-01-20T07:08:59.643Z,67.22
2019-01-20T07:10:04.905Z,68.01
2019-01-20T07:11:10.143Z,68.41
2019-01-20T07:12:14.738Z,68.31
2019-01-20T07:13:20.007Z,68.13
2019-01-20T07:14:25.269Z,67.68
2019-01-20T07:15:31.241Z,68.23
2019-01-20T07:16:36.129Z,68.10
2019-01-20T07:17:41.332Z,68.24
2019-01-20T07:18:46.673Z,68.14
2019-01-20T07:19:51.686Z,68.26
2019-01-20T07:20:57.243Z,68.00
2019-01-20T07:22:03.155Z,67.96
2019-01-20T07:23:08.336Z,68.03
2019-01-20T07:24:13.260Z,67.77
2019-01-20T07:25:18.771Z,67.66
2019-01-20T07:26:23.758Z,67.61
2019-01-20T07:27:28.761Z,67.58
2019-01-20T07:28:34.394Z,67.56
2019-01-20T07:29:39.629Z,67.43
2019-01-20T07:30:44.797Z,67.81
2019-01-20T07:31:50.028Z,67.91
2019-01-20T07:32:54.571Z,67.57
2019-01-20T07:34:00.433Z,67.55
2019-01-20T07:35:06.019Z,67.58
2019-01-20T07:36:11.239Z,67.89
2019-01-20T07:37:16.854Z,67.26
2019-01-20T07:38:21.682Z,67.42
2019-01-20T07:39:26.931Z,67.17
2019-01-20T07:40:31.587Z,67.53
2019-01-20T07:41:37.456Z,68.24
2019-01-20T07:42:42.703Z,68.58
2019-01-20T07:43:48.181Z,68.45
2019-01-20T07:44:53.462Z,67.94
2019-01-20T07:45:58.696Z,68.56
2019-01-20T07:47:03.681Z,68.83
2019-01-20T07:48:08.535Z,68.20
2019-01-20T07:49:14.136Z,68.57
2019-01-20T07:50:26.947Z,68.87
2019-01-20T07:51:31.883Z,68.14
2019-01-20T07:52:36.980Z,67.52
2019-01-20T07:53:41.813Z,66.87
2019-01-20T07:54:49.108Z,66.91
2019-01-20T07:55:53.906Z,66.93
2019-01-20T07:56:58.956Z,66.84
2019-01-20T07:58:04.295Z,66.93
2019-01-20T07:59:09.126Z,66.53
2019-01-20T08:00:16.073Z,66.42
2019-01-20T08:01:21.955Z,66.59
2019-01-20T08:02:26.816Z,66.34
2019-01-20T08:03:32.099Z,66.80
2019-01-20T08:04:37.671Z,66.02
2019-01-20T08:05:42.686Z,66.19
2019-01-20T08:06:48.137Z,66.18
2019-01-20T08:07:53.610Z,66.13
2019-01-20T08:08:58.740Z,66.83
2019-01-20T08:10:03.769Z,68.01
2019-01-20T08:11:09.119Z,67.38
2019-01-20T08:12:13.940Z,67.08
2019-01-20T08:13:24.211Z,66.78
2019-01-20T08:14:26.605Z,66.52
2019-01-20T08:15:31.860Z,66.42
2019-01-20T08:16:36.769Z,65.70
2019-01-20T08:17:42.156Z,65.41
2019-01-20T08:18:46.934Z,65.17
2019-01-20T08:19:54.313Z,64.89
2019-01-20T08:20:59.568Z,64.33
2019-01-20T08:22:04.594Z,63.90
2019-01-20T08:23:09.869Z,64.02
2019-01-20T08:24:15.096Z,64.22
2019-01-20T08:25:20.566Z,64.16
2019-01-20T08:26:25.859Z,63.79
2019-01-20T08:27:30.761Z,63.42
2019-01-20T08:28:35.953Z,63.10
2019-01-20T08:29:40.475Z,63.38
2019-01-20T08:30:45.324Z,63.41
2019-01-20T08:31:50.894Z,63.09
2019-01-20T08:32:56.825Z,62.56
2019-01-20T08:34:01.695Z,62.31
2019-01-20T08:35:06.713Z,62.34
2019-01-20T08:36:12.158Z,62.48
2019-01-20T08:37:17.876Z,62.14
2019-01-20T08:38:22.677Z,61.36
2019-01-20T08:39:27.968Z,61.28
2019-01-20T08:40:33.380Z,60.63
2019-01-20T08:41:38.863Z,60.83
2019-01-20T08:42:44.018Z,60.65
2019-01-20T08:43:49.876Z,60.49
2019-01-20T08:44:55.115Z,60.09
2019-01-20T08:46:12.230Z,60.08
2019-01-20T08:47:33.965Z,59.96
2019-01-20T08:48:38.854Z,58.93
2019-01-20T08:49:44.187Z,59.07
2019-01-20T08:50:49.178Z,58.26
2019-01-20T08:51:54.771Z,57.16
2019-01-20T08:53:00.672Z,57.34
2019-01-20T08:54:06.827Z,57.03
2019-01-20T08:55:12.169Z,56.23
2019-01-20T08:56:17.204Z,56.37
2019-01-20T08:57:23.087Z,56.33
2019-01-20T08:58:28.294Z,56.22
2019-01-20T08:59:33.802Z,55.10
2019-01-20T09:00:40.603Z,54.71
2019-01-20T09:01:48.277Z,54.26
2019-01-20T09:02:52.977Z,54.01
2019-01-20T09:03:58.018Z,54.26
2019-01-20T09:05:04.234Z,53.60
2019-01-20T09:06:09.284Z,53.50
2019-01-20T09:07:14.762Z,53.08
2019-01-20T09:08:19.672Z,52.73
2019-01-20T09:09:25.266Z,52.80
2019-01-20T09:10:30.660Z,52.04
2019-01-20T09:11:35.563Z,52.68
2019-01-20T09:12:41.795Z,52.12
2019-01-20T09:13:46.675Z,51.64
2019-01-20T09:14:51.599Z,51.49
2019-01-20T09:15:56.483Z,52.04
2019-01-20T09:17:03.560Z,51.67
2019-01-20T09:18:08.494Z,51.65
2019-01-20T09:19:13.384Z,51.39
2019-01-20T09:20:18.365Z,51.32
2019-01-20T09:21:23.796Z,51.35
2019-01-20T09:22:29.428Z,50.88
2019-01-20T09:23:34.707Z,50.57
2019-01-20T09:24:39.215Z,51.56
2019-01-20T09:25:44.455Z,52.91
2019-01-20T09:26:49.061Z,53.72
2019-01-20T09:27:54.342Z,50.73
2019-01-20T09:28:59.881Z,50.57
2019-01-20T09:30:06.502Z,49.92
2019-01-20T09:31:11.821Z,49.83
2019-01-20T09:32:17.676Z,49.81
2019-01-20T09:33:24.739Z,49.33
2019-01-20T09:34:30.087Z,49.39
2019-01-20T09:35:35.049Z,49.09
2019-01-20T09:36:41.064Z,49.72
2019-01-20T09:37:46.083Z,49.13
2019-01-20T09:38:51.035Z,48.96
2019-01-20T09:39:55.886Z,48.71
2019-01-20T09:41:01.644Z,48.51
2019-01-20T09:42:07.310Z,47.83
2019-01-20T09:43:35.901Z,48.15
2019-01-20T09:44:41.042Z,48.13
2019-01-20T09:45:45.906Z,47.93
2019-01-20T09:46:51.393Z,47.82
2019-01-20T09:47:56.388Z,47.63
2019-01-20T09:49:01.570Z,47.49
2019-01-20T09:50:07.403Z,46.90
2019-01-20T09:51:12.743Z,47.16
2019-01-20T09:52:20.407Z,47.18
2019-01-20T09:53:25.702Z,46.98
2019-01-20T09:54:31.063Z,46.72
2019-01-20T09:55:36.059Z,46.20
2019-01-20T09:56:41.610Z,46.36
2019-01-20T09:57:47.330Z,45.87
2019-01-20T09:58:52.366Z,45.55
2019-01-20T09:59:57.522Z,45.63
2019-01-20T10:01:02.384Z,45.41
2019-01-20T10:02:07.808Z,46.18
2019-01-20T10:03:16.263Z,45.93
2019-01-20T10:04:20.947Z,46.08
2019-01-20T10:05:26.411Z,46.43
2019-01-20T10:06:32.182Z,46.08
2019-01-20T10:07:37.050Z,45.62
2019-01-20T10:08:49.746Z,45.80
2019-01-20T10:10:17.332Z,45.15
2019-01-20T10:11:22.128Z,44.62
2019-01-20T10:12:27.412Z,44.73
2019-01-20T10:13:31.975Z,44.63
2019-01-20T10:14:37.313Z,44.82
2019-01-20T10:15:42.175Z,44.87
2019-01-20T10:16:47.662Z,44.86
2019-01-20T10:17:52.266Z,44.55
2019-01-20T10:18:57.591Z,44.33
2019-01-20T10:20:02.494Z,44.14
2019-01-20T10:21:07.392Z,44.84
2019-01-20T10:22:12.728Z,45.38
2019-01-20T10:23:17.712Z,45.01
2019-01-20T10:24:22.997Z,45.05
2019-01-20T10:25:28.709Z,45.06
2019-01-20T10:26:33.691Z,44.71
2019-01-20T10:27:38.994Z,44.71
2019-01-20T10:28:43.901Z,44.73
2019-01-20T10:29:48.821Z,44.24
2019-01-20T10:30:54.128Z,44.04
2019-01-20T10:32:00.040Z,44.21
2019-01-20T10:33:06.619Z,44.17
2019-01-20T10:34:12.533Z,43.91
2019-01-20T10:35:18.559Z,43.77
2019-01-20T10:36:23.541Z,43.76
2019-01-20T10:37:28.645Z,43.95
2019-01-20T10:38:37.279Z,43.28
2019-01-20T10:39:39.960Z,43.59
2019-01-20T10:40:45.720Z,43.18
2019-01-20T10:41:50.555Z,42.95
2019-01-20T10:42:55.711Z,43.42
2019-01-20T10:44:02.424Z,43.39
2019-01-20T10:45:08.284Z,42.62
2019-01-20T10:46:13.615Z,42.42
2019-01-20T10:47:18.494Z,42.49
2019-01-20T10:48:24.588Z,42.44
2019-01-20T10:49:31.290Z,42.39
2019-01-20T10:50:36.175Z,42.89
2019-01-20T10:51:43.397Z,42.66
2019-01-20T10:52:48.829Z,42.42
2019-01-20T10:53:54.299Z,41.62
2019-01-20T10:54:59.640Z,41.44
2019-01-20T10:56:04.579Z,41.47
2019-01-20T10:57:09.767Z,42.17
2019-01-20T10:58:14.528Z,42.31
2019-01-20T10:59:20.324Z,42.04
2019-01-20T11:00:28.166Z,42.84
2019-01-20T11:01:33.515Z,42.61
2019-01-20T11:02:38.400Z,42.55
2019-01-20T11:03:43.782Z,42.24
2019-01-20T11:04:48.691Z,42.53
2019-01-20T11:05:53.652Z,42.07
2019-01-20T11:06:58.962Z,42.18
2019-01-20T11:08:04.027Z,41.63
2019-01-20T11:09:08.940Z,42.46
2019-01-20T11:10:13.900Z,42.38
2019-01-20T11:11:19.250Z,42.39
2019-01-20T11:12:24.424Z,42.66
2019-01-20T11:13:29.280Z,42.83
2019-01-20T11:14:34.573Z,42.32
2019-01-20T11:15:39.293Z,41.87
2019-01-20T11:16:43.984Z,42.63
2019-01-20T11:17:48.667Z,42.71
2019-01-20T11:18:55.846Z,42.15
2019-01-20T11:20:01.479Z,42.18
2019-01-20T11:21:06.960Z,41.76
2019-01-20T11:22:11.910Z,41.61
2019-01-20T11:23:17.089Z,41.67
2019-01-20T11:24:22.624Z,41.81
2019-01-20T11:25:30.635Z,41.72
2019-01-20T11:26:36.562Z,41.37
2019-01-20T11:27:41.282Z,41.53
2019-01-20T11:28:46.761Z,41.38
2019-01-20T11:29:52.067Z,41.17
2019-01-20T11:30:57.868Z,40.56
2019-01-20T11:32:03.293Z,40.90
2019-01-20T11:33:08.304Z,40.82
2019-01-20T11:34:13.709Z,41.17
2019-01-20T11:35:19.409Z,41.00
2019-01-20T11:36:23.976Z,41.15
2019-01-20T11:37:28.989Z,41.11
2019-01-20T11:38:33.984Z,41.00
2019-01-20T11:39:38.936Z,40.67
2019-01-20T11:40:44.170Z,40.96
2019-01-20T11:41:49.684Z,40.76
2019-01-20T11:42:55.506Z,40.62
2019-01-20T11:44:00.286Z,40.90
2019-01-20T11:45:06.113Z,40.54
2019-01-20T11:46:10.703Z,40.73
2019-01-20T11:47:16.497Z,40.72
2019-01-20T11:48:21.513Z,40.90
2019-01-20T11:49:26.835Z,40.11
2019-01-20T11:50:32.362Z,40.38
2019-01-20T11:51:37.454Z,40.44
2019-01-20T11:52:43.244Z,40.44
2019-01-20T11:53:49.471Z,40.14
2019-01-20T11:54:54.171Z,40.21
2019-01-20T11:55:59.548Z,40.09
2019-01-20T11:57:04.236Z,40.18
2019-01-20T11:58:09.869Z,40.06
2019-01-20T11:59:14.534Z,40.90
2019-01-20T12:00:28.349Z,40.97
2019-01-20T12:01:33.491Z,40.93
2019-01-20T12:02:38.800Z,40.62
2019-01-20T12:03:44.262Z,41.44
2019-01-20T12:04:49.565Z,41.10
2019-01-20T12:05:54.538Z,40.73
2019-01-20T12:06:59.420Z,40.85
2019-01-20T12:08:04.417Z,40.71
2019-01-20T12:09:09.530Z,40.64
2019-01-20T12:10:14.258Z,40.77
2019-01-20T12:11:19.801Z,40.80
2019-01-20T12:12:25.357Z,40.30
2019-01-20T12:13:31.072Z,39.70
2019-01-20T12:14:36.623Z,40.16
2019-01-20T12:15:41.443Z,40.35
2019-01-20T12:16:46.478Z,40.38
2019-01-20T12:17:51.482Z,40.62
2019-01-20T12:18:56.910Z,40.26
2019-01-20T12:20:02.422Z,41.41
2019-01-20T12:21:07.435Z,41.17
2019-01-20T12:22:12.780Z,41.05
2019-01-20T12:23:18.241Z,40.76
2019-01-20T12:24:23.220Z,40.50
2019-01-20T12:25:28.831Z,40.83
2019-01-20T12:26:33.732Z,40.71
2019-01-20T12:27:38.699Z,40.64
2019-01-20T12:28:44.015Z,40.59
2019-01-20T12:29:51.907Z,40.73
2019-01-20T12:30:55.694Z,40.58
2019-01-20T12:32:01.169Z,40.25
2019-01-20T12:33:06.662Z,40.39
2019-01-20T12:34:11.604Z,40.73
2019-01-20T12:35:16.922Z,40.44
2019-01-20T12:36:21.834Z,40.63
2019-01-20T12:37:27.140Z,40.75
2019-01-20T12:38:32.081Z,40.80
2019-01-20T12:39:37.415Z,41.22
2019-01-20T12:40:47.131Z,40.86
2019-01-20T12:41:52.081Z,40.85
2019-01-20T12:42:57.379Z,40.71
2019-01-20T12:44:03.024Z,40.85
2019-01-20T12:45:08.578Z,40.99
2019-01-20T12:46:13.457Z,40.54
2019-01-20T12:47:18.502Z,40.70
2019-01-20T12:48:23.825Z,40.47
2019-01-20T12:49:29.217Z,40.19
2019-01-20T12:50:34.290Z,40.83
2019-01-20T12:51:38.860Z,41.03
2019-01-20T12:52:43.847Z,41.05
2019-01-20T12:53:49.169Z,40.82
2019-01-20T12:54:54.530Z,40.95
2019-01-20T12:55:59.923Z,41.12
2019-01-20T12:57:04.855Z,41.37
2019-01-20T12:58:09.871Z,41.06
2019-01-20T12:59:14.821Z,40.99
2019-01-20T13:00:20.753Z,40.92
2019-01-20T13:01:26.580Z,40.83
2019-01-20T13:02:31.929Z,41.18
2019-01-20T13:03:37.142Z,40.96
2019-01-20T13:04:43.160Z,41.62
2019-01-20T13:05:48.294Z,41.11
2019-01-20T13:06:53.726Z,40.89
2019-01-20T13:07:59.108Z,41.02
2019-01-20T13:09:06.046Z,41.77
2019-01-20T13:10:12.246Z,41.37
2019-01-20T13:11:17.130Z,41.44
2019-01-20T13:12:21.989Z,41.14
2019-01-20T13:13:26.558Z,41.74
2019-01-20T13:14:38.800Z,41.47
2019-01-20T13:15:39.009Z,41.24
2019-01-20T13:16:44.786Z,40.71
2019-01-20T13:17:50.706Z,40.67
2019-01-20T13:18:56.257Z,40.25
2019-01-20T13:20:01.300Z,41.03
2019-01-20T13:21:08.075Z,40.77
2019-01-20T13:22:13.626Z,40.15
2019-01-20T13:23:18.946Z,40.16
2019-01-20T13:24:23.891Z,39.97
2019-01-20T13:25:30.559Z,39.85
2019-01-20T13:26:35.190Z,39.25
2019-01-20T13:27:40.126Z,39.90
2019-01-20T13:28:45.925Z,40.26
2019-01-20T13:29:51.787Z,40.10
2019-01-20T13:30:57.111Z,40.26
2019-01-20T13:32:04.185Z,40.10
2019-01-20T13:33:09.611Z,39.88
2019-01-20T13:34:14.845Z,39.74
2019-01-20T13:35:20.926Z,39.67
2019-01-20T13:36:26.379Z,39.86
2019-01-20T13:37:31.296Z,39.86
2019-01-20T13:38:37.116Z,39.36
2019-01-20T13:39:42.081Z,39.30
2019-01-20T13:41:02.724Z,39.66
2019-01-20T13:42:07.740Z,39.34
2019-01-20T13:43:13.156Z,39.60
2019-01-20T13:44:18.020Z,39.74
2019-01-20T13:45:22.659Z,40.00
2019-01-20T13:46:27.752Z,39.77
2019-01-20T13:47:32.713Z,39.64
2019-01-20T13:48:38.035Z,40.21
2019-01-20T13:49:42.650Z,40.01
2019-01-20T13:50:47.673Z,39.67
2019-01-20T13:51:52.695Z,39.76
2019-01-20T13:52:57.660Z,39.72
2019-01-20T13:54:03.059Z,40.21
2019-01-20T13:55:09.257Z,40.21
2019-01-20T13:56:15.116Z,40.09
2019-01-20T13:57:20.116Z,39.99
2019-01-20T13:58:25.431Z,39.42
2019-01-20T13:59:30.409Z,40.08
2019-01-20T14:00:35.370Z,39.96
2019-01-20T14:01:40.477Z,39.76
2019-01-20T14:02:45.556Z,39.91
2019-01-20T14:03:51.334Z,39.92
2019-01-20T14:04:56.797Z,39.95